sensor_id;sensor_type;location;lat;lon;timestamp;pressure;altitude;pressure_sealevel;temperature;humidity
30152;BME280;16963;26.018;-80.216;2022-07-21T00:00:26;101716.66;;;32.89;52.49
30152;BME280;16963;26.018;-80.216;2022-07-21T00:02:56;101718.38;;;32.80;52.73
30152;BME280;16963;26.018;-80.216;2022-07-21T00:05:25;101711.19;;;32.70;53.03
30152;BME280;16963;26.018;-80.216;2022-07-21T00:07:53;101708.47;;;32.70;53.25
30152;BME280;16963;26.018;-80.216;2022-07-21T00:10:24;101716.34;;;32.73;54.05
30152;BME280;16963;26.018;-80.216;2022-07-21T00:12:54;101714.91;;;32.69;53.70
30152;BME280;16963;26.018;-80.216;2022-07-21T00:15:25;101713.47;;;32.65;54.17
30152;BME280;16963;26.018;-80.216;2022-07-21T00:18:06;101707.44;;;32.51;54.49
30152;BME280;16963;26.018;-80.216;2022-07-21T00:20:33;101717.13;;;32.44;55.01
30152;BME280;16963;26.018;-80.216;2022-07-21T00:23:03;101729.00;;;32.43;55.33
30152;BME280;16963;26.018;-80.216;2022-07-21T00:25:32;101720.56;;;32.36;55.67
30152;BME280;16963;26.018;-80.216;2022-07-21T00:28:03;101720.81;;;32.33;55.75
30152;BME280;16963;26.018;-80.216;2022-07-21T00:30:31;101727.09;;;32.34;54.72
30152;BME280;16963;26.018;-80.216;2022-07-21T00:32:59;101727.97;;;32.34;55.30
30152;BME280;16963;26.018;-80.216;2022-07-21T00:35:28;101737.97;;;32.34;55.42
30152;BME280;16963;26.018;-80.216;2022-07-21T00:38:16;101743.69;;;32.31;55.60
30152;BME280;16963;26.018;-80.216;2022-07-21T00:40:43;101741.53;;;32.25;55.39
30152;BME280;16963;26.018;-80.216;2022-07-21T00:43:11;101742.06;;;32.18;55.84
30152;BME280;16963;26.018;-80.216;2022-07-21T00:45:39;101751.22;;;32.17;56.31
30152;BME280;16963;26.018;-80.216;2022-07-21T00:48:07;101747.63;;;32.17;56.07
30152;BME280;16963;26.018;-80.216;2022-07-21T00:50:35;101757.63;;;32.16;56.17
30152;BME280;16963;26.018;-80.216;2022-07-21T00:53:03;101756.19;;;32.12;56.33
30152;BME280;16963;26.018;-80.216;2022-07-21T00:55:36;101762.88;;;32.08;57.62
30152;BME280;16963;26.018;-80.216;2022-07-21T00:58:03;101762.69;;;32.00;57.23
30152;BME280;16963;26.018;-80.216;2022-07-21T01:03:05;101773.44;;;31.80;58.46
30152;BME280;16963;26.018;-80.216;2022-07-21T01:05:33;101777.53;;;31.75;58.92
30152;BME280;16963;26.018;-80.216;2022-07-21T01:08:00;101777.41;;;31.76;57.75
30152;BME280;16963;26.018;-80.216;2022-07-21T01:10:31;101789.13;;;31.77;58.33
30152;BME280;16963;26.018;-80.216;2022-07-21T01:13:00;101783.84;;;31.75;57.91
30152;BME280;16963;26.018;-80.216;2022-07-21T01:15:29;101787.53;;;31.74;57.92
30152;BME280;16963;26.018;-80.216;2022-07-21T01:17:57;101786.41;;;31.77;58.45
30152;BME280;16963;26.018;-80.216;2022-07-21T01:20:25;101789.13;;;31.77;58.94
30152;BME280;16963;26.018;-80.216;2022-07-21T01:23:08;101791.69;;;31.78;58.65
30152;BME280;16963;26.018;-80.216;2022-07-21T01:25:49;101796.59;;;31.85;58.81
30152;BME280;16963;26.018;-80.216;2022-07-21T01:28:17;101809.19;;;31.86;58.73
30152;BME280;16963;26.018;-80.216;2022-07-21T01:30:45;101802.56;;;31.78;59.00
30152;BME280;16963;26.018;-80.216;2022-07-21T01:33:13;101797.53;;;31.74;59.50
30152;BME280;16963;26.018;-80.216;2022-07-21T01:35:40;101800.13;;;31.75;59.03
30152;BME280;16963;26.018;-80.216;2022-07-21T01:38:11;101806.28;;;31.77;59.59
30152;BME280;16963;26.018;-80.216;2022-07-21T01:40:58;101808.00;;;31.78;59.28
30152;BME280;16963;26.018;-80.216;2022-07-21T01:43:45;101800.44;;;31.82;58.61
30152;BME280;16963;26.018;-80.216;2022-07-21T01:46:12;101800.91;;;31.87;58.73
30152;BME280;16963;26.018;-80.216;2022-07-21T01:48:53;101810.91;;;31.87;58.72
30152;BME280;16963;26.018;-80.216;2022-07-21T01:51:21;101813.16;;;31.82;58.93
30152;BME280;16963;26.018;-80.216;2022-07-21T01:53:50;101818.84;;;31.78;59.48
30152;BME280;16963;26.018;-80.216;2022-07-21T01:56:24;101815.88;;;31.82;59.25
30152;BME280;16963;26.018;-80.216;2022-07-21T01:58:54;101813.41;;;31.78;59.93
30152;BME280;16963;26.018;-80.216;2022-07-21T02:01:26;101811.44;;;31.80;59.55
30152;BME280;16963;26.018;-80.216;2022-07-21T02:03:58;101802.34;;;31.70;59.36
30152;BME280;16963;26.018;-80.216;2022-07-21T02:06:29;101810.69;;;31.57;60.23
30152;BME280;16963;26.018;-80.216;2022-07-21T02:09:03;101799.50;;;31.51;59.83
30152;BME280;16963;26.018;-80.216;2022-07-21T02:11:31;101798.66;;;31.50;60.01
30152;BME280;16963;26.018;-80.216;2022-07-21T02:13:58;101805.78;;;31.51;60.01
30152;BME280;16963;26.018;-80.216;2022-07-21T02:16:26;101803.81;;;31.53;59.83
30152;BME280;16963;26.018;-80.216;2022-07-21T02:18:53;101794.09;;;31.51;59.56
30152;BME280;16963;26.018;-80.216;2022-07-21T02:21:23;101791.25;;;31.52;59.28
30152;BME280;16963;26.018;-80.216;2022-07-21T02:23:50;101789.31;;;31.43;59.98
30152;BME280;16963;26.018;-80.216;2022-07-21T02:26:18;101795.94;;;31.39;60.11
30152;BME280;16963;26.018;-80.216;2022-07-21T02:28:46;101793.91;;;31.31;60.28
30152;BME280;16963;26.018;-80.216;2022-07-21T02:31:13;101799.56;;;31.28;60.83
30152;BME280;16963;26.018;-80.216;2022-07-21T02:33:52;101801.31;;;31.29;60.17
30152;BME280;16963;26.018;-80.216;2022-07-21T02:36:20;101810.41;;;31.28;60.90
30152;BME280;16963;26.018;-80.216;2022-07-21T02:38:48;101806.97;;;31.26;60.95
30152;BME280;16963;26.018;-80.216;2022-07-21T02:41:18;101805.50;;;31.22;60.87
30152;BME280;16963;26.018;-80.216;2022-07-21T02:43:45;101801.34;;;31.18;60.51
30152;BME280;16963;26.018;-80.216;2022-07-21T02:46:13;101796.91;;;31.17;60.25
30152;BME280;16963;26.018;-80.216;2022-07-21T02:48:40;101800.59;;;31.16;59.76
30152;BME280;16963;26.018;-80.216;2022-07-21T02:51:08;101795.44;;;31.13;59.56
30152;BME280;16963;26.018;-80.216;2022-07-21T02:53:50;101801.16;;;31.10;59.79
30152;BME280;16963;26.018;-80.216;2022-07-21T02:58:16;101783.41;;;31.06;59.15
30152;BME280;16963;26.018;-80.216;2022-07-21T03:00:55;101789.28;;;31.11;59.05
30152;BME280;16963;26.018;-80.216;2022-07-21T03:03:25;101797.44;;;31.11;59.59
30152;BME280;16963;26.018;-80.216;2022-07-21T03:05:54;101792.28;;;31.08;59.82
30152;BME280;16963;26.018;-80.216;2022-07-21T03:08:23;101797.44;;;31.11;59.75
30152;BME280;16963;26.018;-80.216;2022-07-21T03:10:52;101797.69;;;31.08;60.41
30152;BME280;16963;26.018;-80.216;2022-07-21T03:13:19;101795.00;;;31.08;60.11
30152;BME280;16963;26.018;-80.216;2022-07-21T03:16:03;101796.81;;;31.07;60.63
30152;BME280;16963;26.018;-80.216;2022-07-21T03:18:41;101798.78;;;31.05;60.15
30152;BME280;16963;26.018;-80.216;2022-07-21T03:21:09;101793.53;;;31.04;60.64
30152;BME280;16963;26.018;-80.216;2022-07-21T03:23:38;101794.25;;;31.06;61.26
30152;BME280;16963;26.018;-80.216;2022-07-21T03:26:05;101789.56;;;31.08;61.10
30152;BME280;16963;26.018;-80.216;2022-07-21T03:28:33;101785.38;;;31.04;61.10
30152;BME280;16963;26.018;-80.216;2022-07-21T03:31:01;101782.91;;;31.00;60.67
30152;BME280;16963;26.018;-80.216;2022-07-21T03:33:32;101783.91;;;30.99;61.00
30152;BME280;16963;26.018;-80.216;2022-07-21T03:36:00;101778.50;;;30.99;61.44
30152;BME280;16963;26.018;-80.216;2022-07-21T03:41:01;101765.56;;;30.92;61.48
30152;BME280;16963;26.018;-80.216;2022-07-21T03:43:36;101763.25;;;30.87;61.53
30152;BME280;16963;26.018;-80.216;2022-07-21T03:46:04;101770.84;;;30.82;61.83
30152;BME280;16963;26.018;-80.216;2022-07-21T03:48:32;101767.41;;;30.80;62.02
30152;BME280;16963;26.018;-80.216;2022-07-21T03:50:59;101765.72;;;30.79;62.19
30152;BME280;16963;26.018;-80.216;2022-07-21T03:53:30;101761.41;;;30.76;61.70
30152;BME280;16963;26.018;-80.216;2022-07-21T03:55:58;101765.25;;;30.74;61.83
30152;BME280;16963;26.018;-80.216;2022-07-21T03:58:28;101766.22;;;30.73;61.25
30152;BME280;16963;26.018;-80.216;2022-07-21T04:01:07;101760.78;;;30.73;61.53
30152;BME280;16963;26.018;-80.216;2022-07-21T04:03:35;101751.94;;;30.71;61.69
30152;BME280;16963;26.018;-80.216;2022-07-21T04:06:03;101751.69;;;30.74;61.60
30152;BME280;16963;26.018;-80.216;2022-07-21T04:08:31;101744.25;;;30.76;61.25
30152;BME280;16963;26.018;-80.216;2022-07-21T04:10:58;101746.97;;;30.76;61.34
30152;BME280;16963;26.018;-80.216;2022-07-21T04:13:26;101747.72;;;30.78;61.97
30152;BME280;16963;26.018;-80.216;2022-07-21T04:15:54;101738.59;;;30.79;61.59
30152;BME280;16963;26.018;-80.216;2022-07-21T04:18:23;101742.28;;;30.78;60.96
30152;BME280;16963;26.018;-80.216;2022-07-21T04:21:05;101724.09;;;30.69;61.58
30152;BME280;16963;26.018;-80.216;2022-07-21T04:26:13;101723.63;;;30.64;61.46
30152;BME280;16963;26.018;-80.216;2022-07-21T04:28:41;101723.88;;;30.60;61.90
30152;BME280;16963;26.018;-80.216;2022-07-21T04:31:10;101721.91;;;30.63;61.56
30152;BME280;16963;26.018;-80.216;2022-07-21T04:33:38;101727.94;;;30.66;62.04
30152;BME280;16963;26.018;-80.216;2022-07-21T04:36:05;101718.78;;;30.67;61.81
30152;BME280;16963;26.018;-80.216;2022-07-21T04:38:33;101717.94;;;30.67;61.33
30152;BME280;16963;26.018;-80.216;2022-07-21T04:41:00;101722.38;;;30.68;61.86
30152;BME280;16963;26.018;-80.216;2022-07-21T04:43:29;101724.84;;;30.71;61.61
30152;BME280;16963;26.018;-80.216;2022-07-21T04:48:25;101712.28;;;30.70;61.76
30152;BME280;16963;26.018;-80.216;2022-07-21T04:50:53;101712.53;;;30.67;62.55
30152;BME280;16963;26.018;-80.216;2022-07-21T04:53:21;101709.34;;;30.62;62.17
30152;BME280;16963;26.018;-80.216;2022-07-21T04:55:49;101699.75;;;30.57;62.01
30152;BME280;16963;26.018;-80.216;2022-07-21T04:58:17;101691.00;;;30.54;62.57
30152;BME280;16963;26.018;-80.216;2022-07-21T05:00:45;101688.44;;;30.52;62.14
30152;BME280;16963;26.018;-80.216;2022-07-21T05:03:13;101684.97;;;30.50;62.16
30152;BME280;16963;26.018;-80.216;2022-07-21T05:05:40;101692.25;;;30.50;62.70
30152;BME280;16963;26.018;-80.216;2022-07-21T05:08:09;101686.72;;;30.51;62.17
30152;BME280;16963;26.018;-80.216;2022-07-21T05:13:12;101689.31;;;30.53;62.51
30152;BME280;16963;26.018;-80.216;2022-07-21T05:15:40;101680.44;;;30.51;62.16
30152;BME280;16963;26.018;-80.216;2022-07-21T05:18:08;101679.84;;;30.47;62.59
30152;BME280;16963;26.018;-80.216;2022-07-21T05:20:36;101677.25;;;30.46;62.38
30152;BME280;16963;26.018;-80.216;2022-07-21T05:23:04;101673.28;;;30.50;62.52
30152;BME280;16963;26.018;-80.216;2022-07-21T05:25:36;101669.63;;;30.51;62.36
30152;BME280;16963;26.018;-80.216;2022-07-21T05:28:06;101675.75;;;30.53;62.20
30152;BME280;16963;26.018;-80.216;2022-07-21T05:30:34;101678.84;;;30.48;62.51
30152;BME280;16963;26.018;-80.216;2022-07-21T05:35:52;101676.78;;;30.41;62.16
30152;BME280;16963;26.018;-80.216;2022-07-21T05:38:20;101675.91;;;30.40;62.00
30152;BME280;16963;26.018;-80.216;2022-07-21T05:40:54;101664.31;;;30.38;61.95
30152;BME280;16963;26.018;-80.216;2022-07-21T05:43:23;101657.47;;;30.34;62.25
30152;BME280;16963;26.018;-80.216;2022-07-21T05:45:52;101664.72;;;30.33;61.88
30152;BME280;16963;26.018;-80.216;2022-07-21T05:48:26;101657.47;;;30.34;62.27
30152;BME280;16963;26.018;-80.216;2022-07-21T05:50:54;101650.31;;;30.33;62.68
30152;BME280;16963;26.018;-80.216;2022-07-21T05:53:23;101647.50;;;30.34;62.34
30152;BME280;16963;26.018;-80.216;2022-07-21T05:56:04;101646.63;;;30.34;62.10
30152;BME280;16963;26.018;-80.216;2022-07-21T05:58:34;101654.75;;;30.34;62.31
30152;BME280;16963;26.018;-80.216;2022-07-21T06:01:03;101650.31;;;30.33;62.94
30152;BME280;16963;26.018;-80.216;2022-07-21T06:03:46;101648.63;;;30.32;63.26
30152;BME280;16963;26.018;-80.216;2022-07-21T06:06:17;101653.16;;;30.31;63.19
30152;BME280;16963;26.018;-80.216;2022-07-21T06:08:48;101643.19;;;30.32;63.16
30152;BME280;16963;26.018;-80.216;2022-07-21T06:11:18;101652.28;;;30.31;62.88
30152;BME280;16963;26.018;-80.216;2022-07-21T06:13:49;101650.66;;;30.28;63.55
30152;BME280;16963;26.018;-80.216;2022-07-21T06:16:22;101649.09;;;30.26;63.13
30152;BME280;16963;26.018;-80.216;2022-07-21T06:18:52;101643.66;;;30.26;62.64
30152;BME280;16963;26.018;-80.216;2022-07-21T06:21:20;101633.81;;;30.25;62.97
30152;BME280;16963;26.018;-80.216;2022-07-21T06:23:50;101634.19;;;30.20;63.52
30152;BME280;16963;26.018;-80.216;2022-07-21T06:26:18;101631.38;;;30.22;63.92
30152;BME280;16963;26.018;-80.216;2022-07-21T06:28:47;101640.22;;;30.24;63.61
30152;BME280;16963;26.018;-80.216;2022-07-21T06:31:14;101641.09;;;30.24;63.74
30152;BME280;16963;26.018;-80.216;2022-07-21T06:33:43;101627.53;;;30.24;64.08
30152;BME280;16963;26.018;-80.216;2022-07-21T06:38:04;101622.38;;;30.21;63.67
30152;BME280;16963;26.018;-80.216;2022-07-21T06:40:40;101614.84;;;30.25;63.65
30152;BME280;16963;26.018;-80.216;2022-07-21T06:43:11;101612.88;;;30.27;62.92
30152;BME280;16963;26.018;-80.216;2022-07-21T06:45:54;101614.84;;;30.25;62.85
30152;BME280;16963;26.018;-80.216;2022-07-21T06:48:24;101616.59;;;30.26;62.82
30152;BME280;16963;26.018;-80.216;2022-07-21T06:50:55;101618.41;;;30.25;63.09
30152;BME280;16963;26.018;-80.216;2022-07-21T06:53:24;101612.88;;;30.27;63.37
30152;BME280;16963;26.018;-80.216;2022-07-21T06:56:07;101611.41;;;30.23;62.82
30152;BME280;16963;26.018;-80.216;2022-07-21T06:58:45;101602.56;;;30.20;63.17
30152;BME280;16963;26.018;-80.216;2022-07-21T07:01:17;101602.56;;;30.20;63.37
30152;BME280;16963;26.018;-80.216;2022-07-21T07:03:47;101588.06;;;30.22;63.17
30152;BME280;16963;26.018;-80.216;2022-07-21T07:06:15;101591.72;;;30.20;63.66
30152;BME280;16963;26.018;-80.216;2022-07-21T07:08:44;101582.63;;;30.22;62.81
30152;BME280;16963;26.018;-80.216;2022-07-21T07:11:13;101584.63;;;30.19;63.24
30152;BME280;16963;26.018;-80.216;2022-07-21T07:13:43;101584.63;;;30.19;62.88
30152;BME280;16963;26.018;-80.216;2022-07-21T07:16:33;101579.44;;;30.16;62.95
30152;BME280;16963;26.018;-80.216;2022-07-21T07:19:14;101579.69;;;30.13;63.08
30152;BME280;16963;26.018;-80.216;2022-07-21T07:21:45;101576.25;;;30.11;62.87
30152;BME280;16963;26.018;-80.216;2022-07-21T07:24:14;101583.38;;;30.12;63.05
30152;BME280;16963;26.018;-80.216;2022-07-21T07:26:43;101582.41;;;30.13;63.04
30152;BME280;16963;26.018;-80.216;2022-07-21T07:29:13;101577.97;;;30.12;62.51
30152;BME280;16963;26.018;-80.216;2022-07-21T07:31:41;101569.13;;;30.10;62.81
30152;BME280;16963;26.018;-80.216;2022-07-21T07:34:10;101571.09;;;30.08;62.64
30152;BME280;16963;26.018;-80.216;2022-07-21T07:36:38;101571.69;;;30.12;62.39
30152;BME280;16963;26.018;-80.216;2022-07-21T07:41:10;101581.41;;;30.14;61.76
30152;BME280;16963;26.018;-80.216;2022-07-21T07:43:38;101572.31;;;30.15;62.01
30152;BME280;16963;26.018;-80.216;2022-07-21T07:46:07;101577.00;;;30.13;62.45
30152;BME280;16963;26.018;-80.216;2022-07-21T07:48:39;101578.97;;;30.11;62.06
30152;BME280;16963;26.018;-80.216;2022-07-21T07:51:11;101572.81;;;30.09;62.57
30152;BME280;16963;26.018;-80.216;2022-07-21T07:53:39;101567.53;;;30.08;62.44
30152;BME280;16963;26.018;-80.216;2022-07-21T07:56:09;101567.66;;;30.06;62.22
30152;BME280;16963;26.018;-80.216;2022-07-21T07:58:38;101556.22;;;30.03;62.57
30152;BME280;16963;26.018;-80.216;2022-07-21T08:01:17;101555.63;;;29.99;62.40
30152;BME280;16963;26.018;-80.216;2022-07-21T08:03:47;101561.31;;;29.96;62.49
30152;BME280;16963;26.018;-80.216;2022-07-21T08:06:16;101560.56;;;29.94;61.72
30152;BME280;16963;26.018;-80.216;2022-07-21T08:08:44;101558.09;;;29.91;62.32
30152;BME280;16963;26.018;-80.216;2022-07-21T08:11:14;101561.81;;;29.90;61.87
30152;BME280;16963;26.018;-80.216;2022-07-21T08:13:44;101564.50;;;29.90;62.17
30152;BME280;16963;26.018;-80.216;2022-07-21T08:16:18;101556.63;;;29.87;62.15
30152;BME280;16963;26.018;-80.216;2022-07-21T08:18:46;101568.44;;;29.86;62.33
30152;BME280;16963;26.018;-80.216;2022-07-21T08:21:29;101568.56;;;29.84;62.23
30152;BME280;16963;26.018;-80.216;2022-07-21T08:26:35;101573.72;;;29.87;61.95
30152;BME280;16963;26.018;-80.216;2022-07-21T08:29:04;101570.88;;;29.89;62.45
30152;BME280;16963;26.018;-80.216;2022-07-21T08:31:34;101567.44;;;29.87;62.30
30152;BME280;16963;26.018;-80.216;2022-07-21T08:34:04;101571.16;;;29.86;62.48
30152;BME280;16963;26.018;-80.216;2022-07-21T08:36:33;101568.56;;;29.84;62.28
30152;BME280;16963;26.018;-80.216;2022-07-21T08:39:01;101573.13;;;29.84;62.44
30152;BME280;16963;26.018;-80.216;2022-07-21T08:41:33;101569.06;;;29.78;62.03
30152;BME280;16963;26.018;-80.216;2022-07-21T08:44:04;101565.13;;;29.82;62.25
30152;BME280;16963;26.018;-80.216;2022-07-21T08:48:32;101574.09;;;29.83;61.77
30152;BME280;16963;26.018;-80.216;2022-07-21T08:51:00;101571.28;;;29.84;61.93
30152;BME280;16963;26.018;-80.216;2022-07-21T08:53:30;101578.28;;;29.87;61.65
30152;BME280;16963;26.018;-80.216;2022-07-21T08:55:58;101578.16;;;29.88;61.87
30152;BME280;16963;26.018;-80.216;2022-07-21T08:58:25;101587.75;;;29.92;61.49
30152;BME280;16963;26.018;-80.216;2022-07-21T09:00:55;101579.50;;;29.94;61.31
30152;BME280;16963;26.018;-80.216;2022-07-21T09:03:24;101585.16;;;29.91;61.82
30152;BME280;16963;26.018;-80.216;2022-07-21T09:06:11;101587.13;;;29.89;61.52
30152;BME280;16963;26.018;-80.216;2022-07-21T09:09:00;101596.44;;;30.07;61.64
30152;BME280;16963;26.018;-80.216;2022-07-21T09:11:43;101594.00;;;29.93;61.72
30152;BME280;16963;26.018;-80.216;2022-07-21T09:14:15;101592.53;;;29.89;61.55
30152;BME280;16963;26.018;-80.216;2022-07-21T09:16:50;101595.63;;;29.84;61.74
30152;BME280;16963;26.018;-80.216;2022-07-21T09:21:54;101596.75;;;29.82;61.36
30152;BME280;16963;26.018;-80.216;2022-07-21T09:24:34;101601.53;;;29.78;61.65
30152;BME280;16963;26.018;-80.216;2022-07-21T09:30:00;101613.22;;;29.78;62.15
30152;BME280;16963;26.018;-80.216;2022-07-21T09:32:32;101621.59;;;29.75;62.05
30152;BME280;16963;26.018;-80.216;2022-07-21T09:35:09;101613.47;;;29.75;62.71
30152;BME280;16963;26.018;-80.216;2022-07-21T09:37:38;101620.84;;;29.73;62.39
30152;BME280;16963;26.018;-80.216;2022-07-21T09:40:10;101615.19;;;29.76;62.86
30152;BME280;16963;26.018;-80.216;2022-07-21T09:42:48;101616.19;;;29.75;62.65
30152;BME280;16963;26.018;-80.216;2022-07-21T09:45:18;101613.69;;;29.72;62.69
30152;BME280;16963;26.018;-80.216;2022-07-21T09:47:46;101616.75;;;29.68;63.17
30152;BME280;16963;26.018;-80.216;2022-07-21T09:50:38;101620.44;;;29.67;63.18
30152;BME280;16963;26.018;-80.216;2022-07-21T09:53:07;101625.53;;;29.71;63.29
30152;BME280;16963;26.018;-80.216;2022-07-21T09:55:35;101631.66;;;29.73;63.75
30152;BME280;16963;26.018;-80.216;2022-07-21T09:58:04;101621.69;;;29.74;64.21
30152;BME280;16963;26.018;-80.216;2022-07-21T10:00:33;101625.03;;;29.77;64.03
30152;BME280;16963;26.018;-80.216;2022-07-21T10:03:01;101624.75;;;29.81;63.93
30152;BME280;16963;26.018;-80.216;2022-07-21T10:05:32;101625.75;;;29.79;64.42
30152;BME280;16963;26.018;-80.216;2022-07-21T10:08:06;101624.91;;;29.79;64.88
30152;BME280;16963;26.018;-80.216;2022-07-21T10:10:44;101626.00;;;29.76;64.85
30152;BME280;16963;26.018;-80.216;2022-07-21T10:13:32;101634.13;;;29.76;64.94
30152;BME280;16963;26.018;-80.216;2022-07-21T10:16:00;101636.81;;;29.76;65.40
30152;BME280;16963;26.018;-80.216;2022-07-21T10:18:36;101635.72;;;29.79;65.40
30152;BME280;16963;26.018;-80.216;2022-07-21T10:23:54;101645.66;;;29.78;65.25
30152;BME280;16963;26.018;-80.216;2022-07-21T10:26:24;101647.63;;;29.76;65.15
30152;BME280;16963;26.018;-80.216;2022-07-21T10:29:04;101648.75;;;29.74;65.19
30152;BME280;16963;26.018;-80.216;2022-07-21T10:31:41;101654.16;;;29.74;65.11
30152;BME280;16963;26.018;-80.216;2022-07-21T10:34:10;101653.53;;;29.70;65.20
30152;BME280;16963;26.018;-80.216;2022-07-21T10:36:38;101655.47;;;29.68;65.17
30152;BME280;16963;26.018;-80.216;2022-07-21T10:41:47;101659.41;;;29.64;65.19
30152;BME280;16963;26.018;-80.216;2022-07-21T10:47:07;101670.22;;;29.64;65.09
30152;BME280;16963;26.018;-80.216;2022-07-21T10:50:00;101665.44;;;29.68;65.55
30152;BME280;16963;26.018;-80.216;2022-07-21T10:57:42;101671.50;;;29.71;65.43
30152;BME280;16963;26.018;-80.216;2022-07-21T11:00:25;101656.13;;;29.72;65.34
30152;BME280;16963;26.018;-80.216;2022-07-21T11:03:01;101658.72;;;29.73;64.82
30152;BME280;16963;26.018;-80.216;2022-07-21T11:05:33;101661.31;;;29.75;64.87
30152;BME280;16963;26.018;-80.216;2022-07-21T11:08:17;101667.31;;;29.78;64.70
30152;BME280;16963;26.018;-80.216;2022-07-21T11:11:57;101674.47;;;29.79;64.80
30152;BME280;16963;26.018;-80.216;2022-07-21T11:14:40;101677.91;;;29.82;64.69
30152;BME280;16963;26.018;-80.216;2022-07-21T11:17:23;101669.28;;;29.76;64.73
30152;BME280;16963;26.018;-80.216;2022-07-21T11:19:52;101671.88;;;29.78;64.74
30152;BME280;16963;26.018;-80.216;2022-07-21T11:22:24;101682.69;;;29.78;64.42
30152;BME280;16963;26.018;-80.216;2022-07-21T11:27:33;101691.28;;;29.83;64.24
30152;BME280;16963;26.018;-80.216;2022-07-21T11:32:17;101698.44;;;29.84;63.36
30152;BME280;16963;26.018;-80.216;2022-07-21T11:37:29;101689.09;;;29.88;63.90
30152;BME280;16963;26.018;-80.216;2022-07-21T11:40:23;101697.69;;;29.93;63.31
30152;BME280;16963;26.018;-80.216;2022-07-21T11:42:51;101695.63;;;29.97;63.28
30152;BME280;16963;26.018;-80.216;2022-07-21T11:45:24;101703.88;;;30.07;63.23
30152;BME280;16963;26.018;-80.216;2022-07-21T11:47:55;101702.50;;;30.12;63.01
30152;BME280;16963;26.018;-80.216;2022-07-21T11:50:23;101709.38;;;30.16;63.25
30152;BME280;16963;26.018;-80.216;2022-07-21T11:54:04;101719.72;;;30.23;62.77
30152;BME280;16963;26.018;-80.216;2022-07-21T11:56:41;101715.78;;;30.27;62.59
30152;BME280;16963;26.018;-80.216;2022-07-21T11:59:10;101734.25;;;30.22;62.69
30152;BME280;16963;26.018;-80.216;2022-07-21T12:01:49;101734.47;;;30.18;62.86
30152;BME280;16963;26.018;-80.216;2022-07-21T12:07:21;101736.34;;;30.07;63.29
30152;BME280;16963;26.018;-80.216;2022-07-21T12:10:06;101726.75;;;30.03;63.40
30152;BME280;16963;26.018;-80.216;2022-07-21T12:12:51;101719.59;;;30.02;63.12
30152;BME280;16963;26.018;-80.216;2022-07-21T12:17:02;101726.25;;;29.97;62.68
30152;BME280;16963;26.018;-80.216;2022-07-21T12:19:30;101727.63;;;29.92;62.75
30152;BME280;16963;26.018;-80.216;2022-07-21T12:21:58;101735.22;;;29.87;63.13
30152;BME280;16963;26.018;-80.216;2022-07-21T12:24:48;101744.81;;;29.79;63.89
30152;BME280;16963;26.018;-80.216;2022-07-21T12:27:17;101748.34;;;29.69;63.88
30152;BME280;16963;26.018;-80.216;2022-07-21T12:29:45;101754.59;;;29.69;63.94
30152;BME280;16963;26.018;-80.216;2022-07-21T12:32:14;101755.56;;;29.68;64.23
30152;BME280;16963;26.018;-80.216;2022-07-21T12:35:01;101757.81;;;29.74;63.84
30152;BME280;16963;26.018;-80.216;2022-07-21T12:38:06;101771.88;;;29.79;64.04
30152;BME280;16963;26.018;-80.216;2022-07-21T12:48:24;101782.63;;;30.15;62.45
30152;BME280;16963;26.018;-80.216;2022-07-21T12:51:08;101779.53;;;30.19;62.59
30152;BME280;16963;26.018;-80.216;2022-07-21T12:53:42;101765.00;;;30.20;62.63
30152;BME280;16963;26.018;-80.216;2022-07-21T12:56:14;101784.00;;;30.32;62.60
30152;BME280;16963;26.018;-80.216;2022-07-21T12:58:45;101783.25;;;30.41;62.26
30152;BME280;16963;26.018;-80.216;2022-07-21T13:01:13;101790.28;;;30.55;62.11
30152;BME280;16963;26.018;-80.216;2022-07-21T13:03:52;101807.31;;;30.78;61.45
30152;BME280;16963;26.018;-80.216;2022-07-21T13:06:19;101807.59;;;30.97;61.25
30152;BME280;16963;26.018;-80.216;2022-07-21T13:08:48;101800.03;;;31.12;61.37
30152;BME280;16963;26.018;-80.216;2022-07-21T13:11:19;101797.03;;;31.15;60.62
30152;BME280;16963;26.018;-80.216;2022-07-21T13:13:48;101795.97;;;31.07;60.24
30152;BME280;16963;26.018;-80.216;2022-07-21T13:16:19;101799.44;;;30.97;59.54
30152;BME280;16963;26.018;-80.216;2022-07-21T13:18:51;101797.72;;;30.85;59.61
30152;BME280;16963;26.018;-80.216;2022-07-21T13:21:19;101795.03;;;30.74;60.26
30152;BME280;16963;26.018;-80.216;2022-07-21T13:24:01;101807.13;;;30.70;60.63
30152;BME280;16963;26.018;-80.216;2022-07-21T13:28:09;101820.06;;;30.66;60.92
30152;BME280;16963;26.018;-80.216;2022-07-21T13:30:37;101827.31;;;30.66;60.94
30152;BME280;16963;26.018;-80.216;2022-07-21T13:33:10;101825.19;;;30.69;61.26
30152;BME280;16963;26.018;-80.216;2022-07-21T13:35:38;101830.97;;;30.76;61.37
30152;BME280;16963;26.018;-80.216;2022-07-21T13:38:05;101819.91;;;30.79;60.99
30152;BME280;16963;26.018;-80.216;2022-07-21T13:40:33;101823.34;;;30.81;61.00
30152;BME280;16963;26.018;-80.216;2022-07-21T13:43:20;101827.53;;;30.85;60.30
30152;BME280;16963;26.018;-80.216;2022-07-21T13:46:05;101831.38;;;30.83;59.91
30152;BME280;16963;26.018;-80.216;2022-07-21T13:48:40;101845.66;;;30.85;60.28
30152;BME280;16963;26.018;-80.216;2022-07-21T13:51:12;101848.00;;;30.89;59.93
30152;BME280;16963;26.018;-80.216;2022-07-21T13:53:41;101850.06;;;30.97;59.87
30152;BME280;16963;26.018;-80.216;2022-07-21T13:56:10;101857.34;;;31.08;59.73
30152;BME280;16963;26.018;-80.216;2022-07-21T13:58:39;101861.38;;;31.13;59.85
30152;BME280;16963;26.018;-80.216;2022-07-21T14:01:08;101854.59;;;31.19;59.34